Time,TemperatureF,DewpointF,PressureIn,WindDirection,WindDirectionDegrees,WindSpeedMPH,WindSpeedGustMPH,Humidity,HourlyPrecipIn,Conditions,Clouds,dailyrainin,SolarRadiationWatts/m^2,SoftwareType,DateUTC
2013-01-08 00:04:00,27.0,22.0,-100.00,ESE,108,0.0,0.0,80,0.00,,,0.00,0.000000,,2013-01-08 05:04:00,
2013-01-08 00:12:00,27.0,22.0,-100.00,ESE,108,0.0,0.0,80,0.00,,,0.00,0.000000,,2013-01-08 05:12:00,
2013-01-08 00:33:00,26.0,22.0,-100.00,NW,320,0.0,0.0,84,0.00,,,0.00,0.000000,,2013-01-08 05:33:00,
2013-01-08 00:43:00,26.0,22.0,-100.00,NW,320,0.0,0.0,84,0.00,,,0.00,0.000000,,2013-01-08 05:43:00,
2013-01-08 00:53:00,26.0,22.0,-100.00,NW,320,0.0,0.0,84,0.00,,,0.00,0.000000,,2013-01-08 05:53:00,
2013-01-08 01:03:00,26.0,22.0,-100.00,NW,320,0.0,0.0,84,0.00,,,0.00,0.000000,,2013-01-08 06:03:00,
2013-01-08 01:12:00,26.0,22.0,-100.00,NW,320,0.0,0.0,84,0.00,,,0.00,0.000000,,2013-01-08 06:12:00,
2013-01-08 01:33:00,30.0,25.0,-100.00,SW,235,1.0,4.0,81,0.00,,,0.00,0.000000,,2013-01-08 06:33:00,
2013-01-08 01:43:00,30.0,25.0,-100.00,SW,235,1.0,4.0,81,0.00,,,0.00,0.000000,,2013-01-08 06:43:00,
2013-01-08 01:53:00,30.0,25.0,-100.00,SW,235,1.0,4.0,81,0.00,,,0.00,0.000000,,2013-01-08 06:53:00,
2013-01-08 02:02:00,30.0,25.0,-100.00,SW,235,1.0,4.0,81,0.00,,,0.00,0.000000,,2013-01-08 07:02:00,
2013-01-08 02:12:00,30.0,25.0,-100.00,SW,235,1.0,4.0,81,0.00,,,0.00,0.000000,,2013-01-08 07:12:00,
2013-01-08 02:32:00,29.0,24.0,-100.00,NNW,338,1.0,4.0,80,0.00,,,0.00,0.000000,,2013-01-08 07:32:00,
2013-01-08 02:42:00,29.0,24.0,-100.00,NNW,338,1.0,4.0,80,0.00,,,0.00,0.000000,,2013-01-08 07:42:00,
2013-01-08 02:52:00,29.0,24.0,-100.00,NNW,338,1.0,4.0,80,0.00,,,0.00,0.000000,,2013-01-08 07:52:00,
2013-01-08 03:02:00,29.0,24.0,-100.00,NNW,338,1.0,4.0,80,0.00,,,0.00,0.000000,,2013-01-08 08:02:00,
2013-01-08 03:12:00,29.0,24.0,-100.00,NNW,338,1.0,4.0,80,0.00,,,0.00,0.000000,,2013-01-08 08:12:00,
2013-01-08 03:42:00,34.0,26.0,-100.00,SSW,199,2.0,7.0,72,0.00,,,0.00,0.000000,,2013-01-08 08:42:00,
2013-01-08 03:53:00,34.0,26.0,-100.00,SSW,199,2.0,7.0,72,0.00,,,0.00,0.000000,,2013-01-08 08:53:00,
2013-01-08 04:02:00,34.0,26.0,-100.00,SSW,199,2.0,7.0,72,0.00,,,0.00,0.000000,,2013-01-08 09:02:00,
2013-01-08 04:12:00,34.0,26.0,-100.00,SSW,199,2.0,7.0,72,0.00,,,0.00,0.000000,,2013-01-08 09:12:00,
2013-01-08 04:33:00,26.0,22.0,-100.00,NW,309,2.0,2.0,86,0.00,,,0.00,0.000000,,2013-01-08 09:33:00,
2013-01-08 04:42:00,26.0,22.0,-100.00,NW,309,2.0,2.0,86,0.00,,,0.00,0.000000,,2013-01-08 09:42:00,
2013-01-08 04:53:00,26.0,22.0,-100.00,NW,309,2.0,2.0,86,0.00,,,0.00,0.000000,,2013-01-08 09:53:00,
2013-01-08 05:02:00,26.0,22.0,-100.00,NW,309,2.0,2.0,86,0.00,,,0.00,0.000000,,2013-01-08 10:02:00,
2013-01-08 05:12:00,26.0,22.0,-100.00,NW,309,2.0,2.0,86,0.00,,,0.00,0.000000,,2013-01-08 10:12:00,
2013-01-08 05:33:00,26.0,23.0,-100.00,East,100,1.0,3.0,87,0.00,,,0.00,0.000000,,2013-01-08 10:33:00,
2013-01-08 05:43:00,26.0,23.0,-100.00,East,100,1.0,3.0,87,0.00,,,0.00,0.000000,,2013-01-08 10:43:00,
2013-01-08 05:53:00,26.0,23.0,-100.00,East,100,1.0,3.0,87,0.00,,,0.00,0.000000,,2013-01-08 10:53:00,
2013-01-08 06:02:00,26.0,23.0,-100.00,East,100,1.0,3.0,87,0.00,,,0.00,0.000000,,2013-01-08 11:02:00,
2013-01-08 06:12:00,26.0,23.0,-100.00,East,100,1.0,3.0,87,0.00,,,0.00,0.000000,,2013-01-08 11:12:00,
2013-01-08 06:33:00,28.0,23.0,-100.00,SSE,160,1.0,4.0,82,0.00,,,0.00,0.000000,,2013-01-08 11:33:00,
2013-01-08 06:43:00,28.0,23.0,-100.00,SSE,160,1.0,4.0,82,0.00,,,0.00,0.000000,,2013-01-08 11:43:00,
2013-01-08 06:53:00,28.0,23.0,-100.00,SSE,160,1.0,4.0,82,0.00,,,0.00,0.000000,,2013-01-08 11:53:00,
2013-01-08 07:03:00,28.0,23.0,-100.00,SSE,160,1.0,4.0,82,0.00,,,0.00,0.000000,,2013-01-08 12:03:00,
2013-01-08 07:12:00,28.0,23.0,-100.00,SSE,160,1.0,4.0,82,0.00,,,0.00,0.000000,,2013-01-08 12:12:00,
2013-01-08 07:13:00,25.0,22.0,-100.00,ESE,111,2.0,3.0,87,0.00,,,0.00,0.000000,,2013-01-08 12:13:00,
2013-01-08 07:33:00,25.0,22.0,-100.00,ESE,111,2.0,3.0,87,0.00,,,0.00,0.000000,,2013-01-08 12:33:00,
2013-01-08 07:43:00,25.0,22.0,-100.00,ESE,111,2.0,3.0,87,0.00,,,0.00,0.000000,,2013-01-08 12:43:00,
2013-01-08 07:53:00,25.0,22.0,-100.00,ESE,111,2.0,3.0,87,0.00,,,0.00,0.000000,,2013-01-08 12:53:00,
2013-01-08 08:03:00,25.0,22.0,-100.00,ESE,111,2.0,3.0,87,0.00,,,0.00,0.000000,,2013-01-08 13:03:00,
2013-01-08 08:13:00,26.0,22.0,-100.00,WNW,301,1.0,4.0,84,0.00,,,0.00,12.000000,,2013-01-08 13:13:00,
2013-01-08 08:33:00,26.0,22.0,-100.00,WNW,301,1.0,4.0,84,0.00,,,0.00,12.000000,,2013-01-08 13:33:00,
2013-01-08 08:43:00,26.0,22.0,-100.00,WNW,301,1.0,4.0,84,0.00,,,0.00,12.000000,,2013-01-08 13:43:00,
2013-01-08 08:53:00,26.0,22.0,-100.00,WNW,301,1.0,4.0,84,0.00,,,0.00,12.000000,,2013-01-08 13:53:00,
2013-01-08 09:03:00,26.0,22.0,-100.00,WNW,301,1.0,4.0,84,0.00,,,0.00,12.000000,,2013-01-08 14:03:00,
2013-01-08 09:43:00,32.0,25.0,-100.00,NNW,327,2.0,3.0,76,0.00,,,0.00,110.000000,,2013-01-08 14:43:00,
2013-01-08 09:53:00,32.0,25.0,-100.00,NNW,327,2.0,3.0,76,0.00,,,0.00,110.000000,,2013-01-08 14:53:00,
2013-01-08 10:03:00,32.0,25.0,-100.00,NNW,327,2.0,3.0,76,0.00,,,0.00,110.000000,,2013-01-08 15:03:00,
2013-01-08 10:12:00,32.0,25.0,-100.00,NNW,327,2.0,3.0,76,0.00,,,0.00,110.000000,,2013-01-08 15:12:00,
2013-01-08 10:13:00,38.0,29.0,-100.00,WNW,299,1.0,3.0,70,0.00,,,0.00,189.000000,,2013-01-08 15:13:00,
2013-01-08 10:33:00,38.0,29.0,-100.00,WNW,299,1.0,3.0,70,0.00,,,0.00,189.000000,,2013-01-08 15:33:00,
2013-01-08 10:43:00,38.0,29.0,-100.00,WNW,299,1.0,3.0,70,0.00,,,0.00,189.000000,,2013-01-08 15:43:00,
2013-01-08 10:53:00,38.0,29.0,-100.00,WNW,299,1.0,3.0,70,0.00,,,0.00,189.000000,,2013-01-08 15:53:00,
2013-01-08 11:03:00,38.0,29.0,-100.00,WNW,299,1.0,3.0,70,0.00,,,0.00,189.000000,,2013-01-08 16:03:00,
2013-01-08 11:13:00,41.0,31.0,-100.00,NW,311,2.0,4.0,66,0.00,,,0.00,226.000000,,2013-01-08 16:13:00,
2013-01-08 11:34:00,41.0,31.0,-100.00,NW,311,2.0,4.0,66,0.00,,,0.00,226.000000,,2013-01-08 16:34:00,
2013-01-08 11:43:00,41.0,31.0,-100.00,NW,311,2.0,4.0,66,0.00,,,0.00,226.000000,,2013-01-08 16:43:00,
2013-01-08 11:53:00,41.0,31.0,-100.00,NW,311,2.0,4.0,66,0.00,,,0.00,226.000000,,2013-01-08 16:53:00,
2013-01-08 12:03:00,41.0,31.0,-100.00,NW,311,2.0,4.0,66,0.00,,,0.00,226.000000,,2013-01-08 17:03:00,
2013-01-08 12:13:00,46.0,32.0,-100.00,SW,230,3.0,5.0,57,0.00,,,0.00,336.000000,,2013-01-08 17:13:00,
2013-01-08 12:34:00,46.0,32.0,-100.00,SW,230,3.0,5.0,57,0.00,,,0.00,336.000000,,2013-01-08 17:34:00,
2013-01-08 12:43:00,46.0,32.0,-100.00,SW,230,3.0,5.0,57,0.00,,,0.00,336.000000,,2013-01-08 17:43:00,
2013-01-08 12:54:00,46.0,32.0,-100.00,SW,230,3.0,5.0,57,0.00,,,0.00,336.000000,,2013-01-08 17:54:00,
2013-01-08 13:04:00,46.0,32.0,-100.00,SW,230,3.0,5.0,57,0.00,,,0.00,336.000000,,2013-01-08 18:04:00,
2013-01-08 13:33:00,48.0,32.0,-100.00,SSE,160,2.0,7.0,53,0.00,,,0.00,177.000000,,2013-01-08 18:33:00,
2013-01-08 13:43:00,48.0,32.0,-100.00,SSE,160,2.0,7.0,53,0.00,,,0.00,177.000000,,2013-01-08 18:43:00,
2013-01-08 13:53:00,48.0,32.0,-100.00,SSE,160,2.0,7.0,53,0.00,,,0.00,177.000000,,2013-01-08 18:53:00,
2013-01-08 14:03:00,48.0,32.0,-100.00,SSE,160,2.0,7.0,53,0.00,,,0.00,177.000000,,2013-01-08 19:03:00,
2013-01-08 14:12:00,48.0,32.0,-100.00,SSE,160,2.0,7.0,53,0.00,,,0.00,177.000000,,2013-01-08 19:12:00,
2013-01-08 14:43:00,50.0,31.0,-100.00,SW,218,2.0,6.0,48,0.00,,,0.00,95.000000,,2013-01-08 19:43:00,
2013-01-08 14:53:00,50.0,31.0,-100.00,SW,218,2.0,6.0,48,0.00,,,0.00,95.000000,,2013-01-08 19:53:00,
2013-01-08 15:03:00,50.0,31.0,-100.00,SW,218,2.0,6.0,48,0.00,,,0.00,95.000000,,2013-01-08 20:03:00,
2013-01-08 15:12:00,50.0,31.0,-100.00,SW,218,2.0,6.0,48,0.00,,,0.00,95.000000,,2013-01-08 20:12:00,
2013-01-08 15:13:00,51.0,30.0,-100.00,ENE,64,1.0,5.0,45,0.00,,,0.00,96.000000,,2013-01-08 20:13:00,
2013-01-08 15:33:00,51.0,30.0,-100.00,ENE,64,1.0,5.0,45,0.00,,,0.00,96.000000,,2013-01-08 20:33:00,
2013-01-08 15:43:00,51.0,30.0,-100.00,ENE,64,1.0,5.0,45,0.00,,,0.00,96.000000,,2013-01-08 20:43:00,
2013-01-08 15:54:00,51.0,30.0,-100.00,ENE,64,1.0,5.0,45,0.00,,,0.00,96.000000,,2013-01-08 20:54:00,
2013-01-08 16:03:00,51.0,30.0,-100.00,ENE,64,1.0,5.0,45,0.00,,,0.00,96.000000,,2013-01-08 21:03:00,
2013-01-08 16:43:00,50.0,28.0,-100.00,ESE,114,3.0,5.0,42,0.00,,,0.00,50.000000,,2013-01-08 21:43:00,
2013-01-08 16:53:00,50.0,28.0,-100.00,ESE,114,3.0,5.0,42,0.00,,,0.00,50.000000,,2013-01-08 21:53:00,
2013-01-08 17:04:00,50.0,28.0,-100.00,ESE,114,3.0,5.0,42,0.00,,,0.00,50.000000,,2013-01-08 22:04:00,
2013-01-08 17:12:00,50.0,28.0,-100.00,ESE,114,3.0,5.0,42,0.00,,,0.00,50.000000,,2013-01-08 22:12:00,
2013-01-08 17:13:00,44.0,30.0,-100.00,East,89,2.0,6.0,58,0.00,,,0.00,13.000000,,2013-01-08 22:13:00,
2013-01-08 17:33:00,44.0,30.0,-100.00,East,89,2.0,6.0,58,0.00,,,0.00,13.000000,,2013-01-08 22:33:00,
2013-01-08 17:43:00,44.0,30.0,-100.00,East,89,2.0,6.0,58,0.00,,,0.00,13.000000,,2013-01-08 22:43:00,
2013-01-08 17:53:00,44.0,30.0,-100.00,East,89,2.0,6.0,58,0.00,,,0.00,13.000000,,2013-01-08 22:53:00,
2013-01-08 18:03:00,44.0,30.0,-100.00,East,89,2.0,6.0,58,0.00,,,0.00,13.000000,,2013-01-08 23:03:00,
2013-01-08 18:13:00,40.0,29.0,-100.00,SE,132,2.0,4.0,64,0.00,,,0.00,0.000000,,2013-01-08 23:13:00,
2013-01-08 18:33:00,40.0,29.0,-100.00,SE,132,2.0,4.0,64,0.00,,,0.00,0.000000,,2013-01-08 23:33:00,
2013-01-08 18:43:00,40.0,29.0,-100.00,SE,132,2.0,4.0,64,0.00,,,0.00,0.000000,,2013-01-08 23:43:00,
2013-01-08 18:53:00,40.0,29.0,-100.00,SE,132,2.0,4.0,64,0.00,,,0.00,0.000000,,2013-01-08 23:53:00,
2013-01-08 19:03:00,40.0,29.0,-100.00,SE,132,2.0,4.0,64,0.00,,,0.00,0.000000,,2013-01-09 00:03:00,
2013-01-08 19:43:00,35.0,28.0,-100.00,North,8,1.0,2.0,75,0.00,,,0.00,0.000000,,2013-01-09 00:43:00,
2013-01-08 19:53:00,35.0,28.0,-100.00,North,8,1.0,2.0,75,0.00,,,0.00,0.000000,,2013-01-09 00:53:00,
2013-01-08 20:02:00,35.0,28.0,-100.00,North,8,1.0,2.0,75,0.00,,,0.00,0.000000,,2013-01-09 01:02:00,
2013-01-08 20:12:00,35.0,28.0,-100.00,North,8,1.0,2.0,75,0.00,,,0.00,0.000000,,2013-01-09 01:12:00,
2013-01-08 20:33:00,33.0,28.0,-100.00,WNW,296,1.0,2.0,82,0.00,,,0.00,0.000000,,2013-01-09 01:33:00,
2013-01-08 20:43:00,33.0,28.0,-100.00,WNW,296,1.0,2.0,82,0.00,,,0.00,0.000000,,2013-01-09 01:43:00,
2013-01-08 20:53:00,33.0,28.0,-100.00,WNW,296,1.0,2.0,82,0.00,,,0.00,0.000000,,2013-01-09 01:53:00,
2013-01-08 21:02:00,33.0,28.0,-100.00,WNW,296,1.0,2.0,82,0.00,,,0.00,0.000000,,2013-01-09 02:02:00,
2013-01-08 21:12:00,33.0,28.0,-100.00,WNW,296,1.0,2.0,82,0.00,,,0.00,0.000000,,2013-01-09 02:12:00,
2013-01-08 21:33:00,31.0,28.0,-100.00,SSW,211,0.0,2.0,87,0.00,,,0.00,0.000000,,2013-01-09 02:33:00,
2013-01-08 21:43:00,31.0,28.0,-100.00,SSW,211,0.0,2.0,87,0.00,,,0.00,0.000000,,2013-01-09 02:43:00,
2013-01-08 21:53:00,31.0,28.0,-100.00,SSW,211,0.0,2.0,87,0.00,,,0.00,0.000000,,2013-01-09 02:53:00,
2013-01-08 22:03:00,31.0,28.0,-100.00,SSW,211,0.0,2.0,87,0.00,,,0.00,0.000000,,2013-01-09 03:03:00,
2013-01-08 22:12:00,31.0,28.0,-100.00,SSW,211,0.0,2.0,87,0.00,,,0.00,0.000000,,2013-01-09 03:12:00,
2013-01-08 22:33:00,30.0,27.0,-100.00,ESE,107,0.0,2.0,89,0.00,,,0.00,0.000000,,2013-01-09 03:33:00,
2013-01-08 22:43:00,30.0,27.0,-100.00,ESE,107,0.0,2.0,89,0.00,,,0.00,0.000000,,2013-01-09 03:43:00,
2013-01-08 22:53:00,30.0,27.0,-100.00,ESE,107,0.0,2.0,89,0.00,,,0.00,0.000000,,2013-01-09 03:53:00,
2013-01-08 23:02:00,30.0,27.0,-100.00,ESE,107,0.0,2.0,89,0.00,,,0.00,0.000000,,2013-01-09 04:02:00,
2013-01-08 23:12:00,30.0,27.0,-100.00,ESE,107,0.0,2.0,89,0.00,,,0.00,0.000000,,2013-01-09 04:12:00,
2013-01-08 23:33:00,29.0,26.0,-100.00,NW,314,0.0,3.0,89,0.00,,,0.00,0.000000,,2013-01-09 04:33:00,
2013-01-08 23:43:00,29.0,26.0,-100.00,NW,314,0.0,3.0,89,0.00,,,0.00,0.000000,,2013-01-09 04:43:00,
2013-01-08 23:53:00,29.0,26.0,-100.00,NW,314,0.0,3.0,89,0.00,,,0.00,0.000000,,2013-01-09 04:53:00,